createdAt,value
2017-10-10T00:02:33.967Z,15.58
2017-10-10T00:07:35.880Z,15.63
2017-10-10T00:12:37.821Z,15.65
2017-10-10T00:17:39.716Z,15.67
2017-10-10T00:22:41.657Z,15.61
2017-10-10T00:27:43.563Z,15.58
2017-10-10T00:32:45.515Z,15.55
2017-10-10T00:37:47.439Z,15.46
2017-10-10T00:42:51.112Z,15.38
2017-10-10T00:47:54.628Z,15.11
2017-10-10T00:52:57.444Z,15.30
2017-10-10T00:58:00.451Z,15.30
2017-10-10T01:03:03.960Z,15.35
2017-10-10T01:08:06.805Z,15.34
2017-10-10T01:13:09.470Z,15.36
2017-10-10T01:18:11.479Z,15.34
2017-10-10T01:23:13.467Z,15.31
2017-10-10T01:28:15.480Z,15.34
2017-10-10T01:33:17.499Z,15.24
2017-10-10T01:38:19.514Z,15.26
2017-10-10T01:43:21.564Z,15.31
2017-10-10T01:48:24.295Z,15.37
2017-10-10T01:53:26.246Z,15.42
2017-10-10T01:58:28.207Z,15.56
2017-10-10T02:03:30.928Z,15.60
2017-10-10T02:08:33.660Z,15.64
2017-10-10T02:13:35.572Z,15.67
2017-10-10T02:18:37.488Z,15.67
2017-10-10T02:23:39.390Z,15.73
2017-10-10T02:28:41.269Z,15.71
2017-10-10T02:33:43.192Z,15.70
2017-10-10T02:38:45.152Z,15.70
2017-10-10T02:43:47.873Z,15.65
2017-10-10T02:48:49.856Z,15.58
2017-10-10T02:53:51.801Z,15.55
2017-10-10T02:58:54.455Z,15.57
2017-10-10T03:03:56.450Z,15.51
2017-10-10T03:08:58.369Z,15.50
2017-10-10T03:14:00.725Z,15.47
2017-10-10T03:19:03.383Z,15.43
2017-10-10T03:24:06.360Z,15.42
2017-10-10T03:29:08.248Z,15.44
2017-10-10T03:34:11.142Z,15.44
2017-10-10T03:39:13.159Z,15.50
2017-10-10T03:44:15.181Z,15.55
2017-10-10T03:49:20.550Z,15.47
2017-10-10T03:54:23.436Z,15.55
2017-10-10T03:59:26.433Z,15.56
2017-10-10T04:04:28.816Z,15.64
2017-10-10T04:09:31.237Z,15.63
2017-10-10T04:14:33.218Z,15.55
2017-10-10T04:19:35.124Z,15.43
2017-10-10T04:24:37.062Z,15.46
2017-10-10T04:29:39.027Z,15.45
2017-10-10T04:34:40.975Z,15.41
2017-10-10T04:39:42.977Z,15.46
2017-10-10T04:44:44.937Z,15.52
2017-10-10T04:49:46.921Z,15.45
2017-10-10T04:54:50.013Z,15.43
2017-10-10T04:59:51.972Z,15.42
2017-10-10T05:04:54.720Z,15.56
2017-10-10T05:09:56.775Z,15.56
2017-10-10T05:14:58.723Z,15.54
2017-10-10T05:20:00.726Z,15.50
2017-10-10T05:25:02.817Z,15.46
2017-10-10T05:30:05.869Z,15.46
2017-10-10T05:35:07.921Z,15.49
2017-10-10T05:40:09.807Z,15.60
2017-10-10T05:45:11.769Z,15.61
2017-10-10T05:50:13.682Z,15.64
2017-10-10T05:55:15.733Z,15.63
2017-10-10T06:00:17.771Z,15.70
2017-10-10T06:05:20.694Z,15.69
2017-10-10T06:10:23.497Z,15.74
2017-10-10T06:15:25.443Z,15.72
2017-10-10T06:20:27.403Z,15.64
2017-10-10T06:25:29.370Z,15.65
2017-10-10T06:30:31.398Z,15.72
2017-10-10T06:35:33.310Z,15.65
2017-10-10T06:40:35.264Z,15.58
2017-10-10T06:45:37.262Z,15.80
2017-10-10T06:50:39.203Z,15.83
2017-10-10T06:55:41.179Z,15.84
2017-10-10T07:00:43.180Z,15.76
2017-10-10T07:05:45.891Z,15.78
2017-10-10T07:10:48.527Z,15.84
2017-10-10T07:15:50.468Z,16.02
2017-10-10T07:20:52.376Z,16.05
2017-10-10T07:25:54.312Z,16.10
2017-10-10T07:30:56.974Z,15.98
2017-10-10T07:35:58.937Z,16.02
2017-10-10T07:41:01.595Z,15.92
2017-10-10T07:46:03.648Z,16.01
2017-10-10T07:51:06.434Z,15.90
2017-10-10T07:56:08.375Z,15.88
2017-10-10T08:01:10.401Z,15.84
2017-10-10T08:06:13.085Z,15.79
2017-10-10T08:11:14.996Z,15.92
2017-10-10T08:16:16.940Z,16.01
2017-10-10T08:21:19.589Z,16.05
2017-10-10T08:26:21.511Z,16.16
2017-10-10T08:31:23.457Z,16.11
2017-10-10T08:36:26.115Z,16.26
2017-10-10T08:41:28.058Z,16.33
2017-10-10T08:46:29.976Z,16.43
2017-10-10T08:51:32.653Z,16.56
2017-10-10T08:56:34.579Z,16.48
2017-10-10T09:01:36.552Z,16.50
2017-10-10T09:06:38.500Z,16.35
2017-10-10T09:11:41.224Z,16.37
2017-10-10T09:16:43.158Z,16.60
2017-10-10T09:21:45.076Z,16.87
2017-10-10T09:26:46.971Z,16.99
2017-10-10T09:31:48.884Z,16.95
2017-10-10T09:36:50.791Z,16.98
2017-10-10T09:41:52.758Z,16.97
2017-10-10T09:46:55.419Z,17.03
2017-10-10T09:51:57.352Z,16.97
2017-10-10T09:56:59.301Z,17.03
2017-10-10T10:02:01.228Z,17.07
2017-10-10T10:07:03.197Z,17.37
2017-10-10T10:12:05.152Z,17.57
2017-10-10T10:17:07.075Z,17.62
2017-10-10T10:22:08.975Z,17.49
2017-10-10T10:27:10.891Z,17.20
2017-10-10T10:32:13.551Z,17.10
2017-10-10T10:37:15.496Z,17.19
2017-10-10T10:42:17.752Z,17.40
2017-10-10T10:47:19.690Z,17.74
2017-10-10T10:52:21.623Z,17.77
2017-10-10T10:57:24.288Z,17.92
2017-10-10T11:02:26.262Z,18.20
2017-10-10T11:07:28.196Z,18.11
2017-10-10T11:12:30.121Z,18.03
2017-10-10T11:17:32.057Z,17.99
2017-10-10T11:22:33.977Z,18.18
2017-10-10T11:27:36.692Z,18.05
2017-10-10T11:32:39.464Z,18.38
2017-10-10T11:37:41.403Z,18.73
2017-10-10T11:42:43.440Z,19.14
2017-10-10T11:47:45.451Z,19.39
2017-10-10T11:52:50.409Z,19.41
2017-10-10T11:57:53.121Z,19.64
2017-10-10T12:03:01.911Z,19.51
2017-10-10T12:08:03.901Z,19.32
2017-10-10T12:13:07.772Z,18.98
2017-10-10T12:18:09.916Z,19.01
2017-10-10T12:23:11.839Z,19.10
2017-10-10T12:28:13.727Z,19.00
2017-10-10T12:33:15.635Z,19.02
2017-10-10T12:38:17.588Z,18.86
2017-10-10T12:43:19.510Z,18.84
2017-10-10T12:48:21.489Z,18.91
2017-10-10T12:53:24.181Z,18.84
2017-10-10T12:58:26.124Z,18.91
2017-10-10T13:03:28.095Z,18.79
2017-10-10T13:08:30.052Z,18.84
2017-10-10T13:13:31.940Z,18.82
2017-10-10T13:18:33.875Z,18.59
2017-10-10T13:23:35.763Z,18.50
2017-10-10T13:28:37.693Z,18.43
2017-10-10T13:33:40.594Z,18.28
2017-10-10T13:38:43.642Z,18.20
2017-10-10T13:43:45.612Z,17.97
2017-10-10T13:48:47.574Z,17.86
2017-10-10T13:53:49.507Z,17.86
2017-10-10T13:58:51.483Z,18.02
2017-10-10T14:03:53.515Z,18.24
2017-10-10T14:08:55.444Z,18.40
2017-10-10T14:13:59.012Z,18.52
2017-10-10T14:19:01.122Z,18.71
2017-10-10T14:24:03.164Z,18.69
2017-10-10T14:29:05.881Z,18.65
2017-10-10T14:34:08.544Z,18.57
2017-10-10T14:39:10.679Z,18.42
2017-10-10T14:44:12.578Z,18.21
2017-10-10T14:49:14.538Z,18.10
2017-10-10T14:54:16.448Z,18.15
2017-10-10T14:59:18.341Z,18.11
2017-10-10T15:04:20.299Z,17.94
2017-10-10T15:09:22.203Z,17.84
2017-10-10T15:14:24.096Z,17.89
2017-10-10T15:19:26.035Z,17.84
2017-10-10T15:24:27.949Z,17.75
2017-10-10T15:29:30.577Z,17.79
2017-10-10T15:34:32.464Z,17.68
2017-10-10T15:39:35.120Z,17.74
2017-10-10T15:44:37.060Z,17.71
2017-10-10T15:49:38.960Z,17.63
2017-10-10T15:54:40.991Z,17.60
2017-10-10T15:59:43.624Z,17.65
2017-10-10T16:04:45.544Z,17.58
2017-10-10T16:09:47.499Z,17.52
2017-10-10T16:14:49.390Z,17.52
2017-10-10T16:19:51.301Z,17.45
2017-10-10T16:24:53.196Z,17.55
2017-10-10T16:29:55.276Z,17.56
2017-10-10T16:34:58.320Z,17.77
2017-10-10T16:40:00.301Z,17.58
2017-10-10T16:45:02.271Z,17.65
2017-10-10T16:50:04.930Z,17.82
2017-10-10T16:55:06.862Z,17.68
2017-10-10T17:00:08.780Z,17.60
2017-10-10T17:05:10.715Z,17.55
2017-10-10T17:10:13.350Z,17.49
2017-10-10T17:15:15.243Z,17.48
2017-10-10T17:20:17.310Z,17.34
2017-10-10T17:25:19.260Z,17.32
2017-10-10T17:30:21.241Z,17.35
2017-10-10T17:35:24.244Z,17.25
2017-10-10T17:40:31.987Z,17.37
2017-10-10T17:45:33.883Z,17.33
2017-10-10T17:50:35.796Z,17.32
2017-10-10T17:55:37.736Z,17.44
2017-10-10T18:00:39.699Z,17.38
2017-10-10T18:05:41.633Z,17.37
2017-10-10T18:10:43.565Z,17.38
2017-10-10T18:15:45.561Z,17.26
2017-10-10T18:20:47.583Z,17.30
2017-10-10T18:25:49.498Z,17.33
2017-10-10T18:30:51.594Z,17.29
2017-10-10T18:35:54.004Z,17.47
2017-10-10T18:40:55.958Z,17.43
2017-10-10T18:45:59.258Z,17.63
2017-10-10T18:51:01.231Z,17.49
2017-10-10T18:56:03.796Z,17.38
2017-10-10T19:01:06.471Z,17.30
2017-10-10T19:06:08.521Z,17.10
2017-10-10T19:11:10.521Z,17.22
2017-10-10T19:16:12.455Z,17.09
2017-10-10T19:21:15.046Z,17.13
2017-10-10T19:26:16.966Z,17.06
2017-10-10T19:31:19.223Z,17.08
2017-10-10T19:36:21.287Z,17.29
2017-10-10T19:41:23.275Z,17.32
2017-10-10T19:46:25.235Z,17.30
2017-10-10T19:51:27.155Z,17.30
2017-10-10T19:56:29.435Z,17.38
2017-10-10T20:01:32.202Z,17.29
2017-10-10T20:06:34.956Z,17.30
2017-10-10T20:11:37.991Z,17.40
2017-10-10T20:16:41.028Z,17.43
2017-10-10T20:21:43.871Z,17.52
2017-10-10T20:26:46.701Z,17.45
2017-10-10T20:31:49.384Z,17.34
2017-10-10T20:36:52.213Z,17.34
2017-10-10T20:41:54.159Z,17.51
2017-10-10T20:46:56.122Z,17.54
2017-10-10T20:51:58.062Z,17.40
2017-10-10T20:56:59.992Z,17.49
2017-10-10T21:02:01.934Z,17.41
2017-10-10T21:07:03.842Z,17.51
2017-10-10T21:12:06.526Z,17.55
2017-10-10T21:17:08.420Z,17.44
2017-10-10T21:22:10.334Z,17.42
2017-10-10T21:27:12.284Z,17.33
2017-10-10T21:32:14.187Z,17.25
2017-10-10T21:37:16.860Z,17.31
2017-10-10T21:42:18.803Z,17.24
2017-10-10T21:47:21.430Z,17.25
2017-10-10T21:52:24.131Z,17.28
2017-10-10T21:57:26.087Z,17.37
2017-10-10T22:02:28.005Z,17.47
2017-10-10T22:07:29.916Z,17.44
2017-10-10T22:12:31.832Z,17.46
2017-10-10T22:17:33.751Z,17.38
2017-10-10T22:22:35.707Z,17.26
2017-10-10T22:27:37.611Z,17.24
2017-10-10T22:32:39.560Z,17.32
2017-10-10T22:37:41.578Z,17.24
2017-10-10T22:42:43.503Z,17.30
2017-10-10T22:47:45.442Z,17.40
2017-10-10T22:52:47.353Z,17.38
2017-10-10T22:57:49.259Z,17.36
2017-10-10T23:02:51.211Z,17.44
2017-10-10T23:07:53.149Z,17.23
2017-10-10T23:12:55.069Z,17.32
2017-10-10T23:17:57.014Z,17.46
2017-10-10T23:22:59.647Z,17.35
2017-10-10T23:28:01.574Z,17.35
2017-10-10T23:33:03.588Z,17.36
2017-10-10T23:38:05.487Z,17.34
2017-10-10T23:43:07.414Z,17.45
2017-10-10T23:48:10.080Z,17.53
2017-10-10T23:53:12.013Z,17.54
2017-10-10T23:58:13.936Z,17.53
